Time;durP1;ratioP1;P1;durP2;ratioP2;P2;SDS_P1;SDS_P2;PMS_P1;PMS_P2;Temp;Humidity;BMP_temperature;BMP_pressure;BME280_temperature;BME280_humidity;BME280_pressure;Samples;Min_cycle;Max_cycle;Signal;HPM_P1;HPM_P2
2022/07/03 00:01:18;;;;;;;4.95;3.17;;;;;;;;;;5044859;28;20709;-65
2022/07/03 00:03:43;;;;;;;5.43;3.67;;;;;;;;;;5047662;28;20043;-65
2022/07/03 00:06:09;;;;;;;4.82;3.42;;;;;;;;;;5049808;28;20029;-66
2022/07/03 00:08:35;;;;;;;5.63;3.50;;;;;;;;;;5030525;28;20021;-65
2022/07/03 00:11:00;;;;;;;6.00;3.13;;;;;;;;;;5034792;28;20498;-65
2022/07/03 00:13:25;;;;;;;4.63;3.03;;;;;;;;;;5047809;28;20047;-66
2022/07/03 00:15:51;;;;;;;5.93;3.05;;;;;;;;;;5042279;28;20116;-65
2022/07/03 00:18:16;;;;;;;5.28;3.00;;;;;;;;;;5049671;28;20037;-65
2022/07/03 00:20:47;;;;;;;4.15;3.05;;;;;;;;;;5054056;28;20017;-65
2022/07/03 00:23:16;;;;;;;3.67;2.85;;;;;;;;;;5056176;28;20051;-65
2022/07/03 00:25:43;;;;;;;8.13;3.10;;;;;;;;;;5032425;28;20040;-65
2022/07/03 00:28:08;;;;;;;4.47;2.90;;;;;;;;;;5043843;28;20528;-65
2022/07/03 00:30:34;;;;;;;3.72;2.72;;;;;;;;;;5047984;28;20079;-65
2022/07/03 00:33:04;;;;;;;5.60;4.05;;;;;;;;;;5042681;28;20724;-66
2022/07/03 00:35:35;;;;;;;6.25;3.30;;;;;;;;;;5052335;28;20028;-65
2022/07/03 00:38:01;;;;;;;5.93;3.20;;;;;;;;;;5050390;28;20078;-65
2022/07/03 00:40:27;;;;;;;5.63;3.60;;;;;;;;;;5049508;28;20109;-65
2022/07/03 00:42:53;;;;;;;5.30;3.00;;;;;;;;;;5046256;28;20105;-66
2022/07/03 00:45:21;;;;;;;7.93;2.97;;;;;;;;;;5045392;28;20032;-66
2022/07/03 00:47:48;;;;;;;6.45;3.00;;;;;;;;;;5055050;28;20024;-65
2022/07/03 00:50:14;;;;;;;4.20;3.10;;;;;;;;;;5070601;28;20050;-66
2022/07/03 00:52:50;;;;;;;4.82;3.33;;;;;;;;;;5067607;28;20638;-66
2022/07/03 00:55:17;;;;;;;3.63;2.92;;;;;;;;;;5068300;28;20711;-66
2022/07/03 00:57:47;;;;;;;8.88;4.68;;;;;;;;;;5069358;28;20033;-65
2022/07/03 01:00:16;;;;;;;4.57;2.97;;;;;;;;;;5064848;28;20040;-65
2022/07/03 01:02:56;;;;;;;4.47;3.08;;;;;;;;;;5069510;28;20021;-65
2022/07/03 01:05:21;;;;;;;4.38;3.20;;;;;;;;;;5067832;28;20035;-65
2022/07/03 01:08:14;;;;;;;4.35;3.25;;;;;;;;;;5034471;28;20045;-65
2022/07/03 01:10:52;;;;;;;5.68;3.65;;;;;;;;;;5039419;28;20033;-66
2022/07/03 01:13:22;;;;;;;7.20;3.47;;;;;;;;;;5046269;28;20041;-65
2022/07/03 01:16:03;;;;;;;6.65;3.80;;;;;;;;;;5045025;28;20056;-65
2022/07/03 01:18:48;;;;;;;7.13;4.35;;;;;;;;;;5049824;28;20029;-65
2022/07/03 01:21:33;;;;;;;8.15;3.85;;;;;;;;;;5047815;28;20067;-66
2022/07/03 01:24:36;;;;;;;7.78;3.80;;;;;;;;;;5031434;28;20120;-65
2022/07/03 01:27:07;;;;;;;6.55;3.53;;;;;;;;;;5048750;28;20155;-65
2022/07/03 01:29:41;;;;;;;4.88;3.40;;;;;;;;;;5060825;28;20016;-66
2022/07/03 01:32:07;;;;;;;8.80;3.50;;;;;;;;;;5069972;28;20025;-65
2022/07/03 01:34:38;;;;;;;4.85;3.33;;;;;;;;;;5059705;28;20041;-66
2022/07/03 01:37:05;;;;;;;3.35;2.90;;;;;;;;;;5056298;28;20052;-65
2022/07/03 01:39:31;;;;;;;3.67;3.20;;;;;;;;;;5056280;28;20047;-66
2022/07/03 01:42:00;;;;;;;5.25;3.30;;;;;;;;;;5068792;28;20028;-65
2022/07/03 01:44:27;;;;;;;5.57;3.55;;;;;;;;;;5052526;28;20069;-65
2022/07/03 01:46:58;;;;;;;6.32;3.60;;;;;;;;;;5047550;28;20021;-65
2022/07/03 01:49:26;;;;;;;4.43;2.97;;;;;;;;;;5046714;28;20095;-65
2022/07/03 01:51:53;;;;;;;7.03;3.60;;;;;;;;;;5060098;28;20036;-65
2022/07/03 01:54:19;;;;;;;6.18;3.55;;;;;;;;;;5068062;28;20422;-65
2022/07/03 01:56:46;;;;;;;6.25;3.33;;;;;;;;;;5065044;28;20059;-65
2022/07/03 01:59:11;;;;;;;5.95;3.40;;;;;;;;;;5068004;28;20111;-65
2022/07/03 02:02:01;;;;;;;5.63;3.25;;;;;;;;;;5050807;28;20606;-65
2022/07/03 02:04:34;;;;;;;4.10;3.00;;;;;;;;;;5038030;28;20391;-65
2022/07/03 02:07:11;;;;;;;7.55;3.60;;;;;;;;;;5061249;28;20040;-65
2022/07/03 02:09:59;;;;;;;6.47;2.63;;;;;;;;;;5057856;28;20518;-65
2022/07/03 02:12:32;;;;;;;8.50;3.10;;;;;;;;;;5056425;28;20029;-66
2022/07/03 02:15:05;;;;;;;4.05;2.60;;;;;;;;;;5047249;28;20059;-66
2022/07/03 02:17:42;;;;;;;7.07;2.60;;;;;;;;;;5042882;28;20062;-65
2022/07/03 02:20:09;;;;;;;5.95;3.00;;;;;;;;;;5047102;28;20029;-66
2022/07/03 02:22:46;;;;;;;4.18;2.67;;;;;;;;;;5045407;28;20118;-65
2022/07/03 02:25:22;;;;;;;3.75;2.67;;;;;;;;;;5047593;28;20029;-65
2022/07/03 02:27:54;;;;;;;5.13;2.60;;;;;;;;;;5047798;28;20044;-65
2022/07/03 02:30:22;;;;;;;3.45;2.58;;;;;;;;;;5039543;28;20083;-65
2022/07/03 02:32:51;;;;;;;4.88;2.55;;;;;;;;;;5039539;28;20037;-65
2022/07/03 02:35:34;;;;;;;5.93;2.83;;;;;;;;;;5045995;28;20028;-65
2022/07/03 02:38:15;;;;;;;3.53;2.70;;;;;;;;;;5045730;28;20033;-65
2022/07/03 02:41:01;;;;;;;3.58;2.35;;;;;;;;;;5047951;28;20021;-65
2022/07/03 02:44:07;;;;;;;3.67;2.35;;;;;;;;;;5047239;28;20045;-65
2022/07/03 02:46:49;;;;;;;3.97;2.50;;;;;;;;;;5033778;28;20042;-65
2022/07/03 02:49:21;;;;;;;3.40;1.80;;;;;;;;;;5060515;28;20036;-65
2022/07/03 02:52:06;;;;;;;3.13;1.98;;;;;;;;;;5055789;28;20079;-65
2022/07/03 02:54:39;;;;;;;6.63;2.10;;;;;;;;;;5047355;28;20083;-65
2022/07/03 02:57:08;;;;;;;3.53;2.00;;;;;;;;;;5046702;28;20021;-65
2022/07/03 02:59:54;;;;;;;3.72;2.03;;;;;;;;;;5045855;28;20025;-66
2022/07/03 03:02:42;;;;;;;4.82;2.20;;;;;;;;;;5036309;28;20036;-65
2022/07/03 03:05:20;;;;;;;2.78;1.80;;;;;;;;;;5042543;28;20043;-65
2022/07/03 03:08:07;;;;;;;3.38;2.17;;;;;;;;;;5045273;28;20047;-65
2022/07/03 03:10:37;;;;;;;2.97;1.77;;;;;;;;;;5031620;28;20518;-65
2022/07/03 03:13:05;;;;;;;2.78;2.13;;;;;;;;;;5046094;28;20052;-66
2022/07/03 03:15:32;;;;;;;4.45;2.22;;;;;;;;;;5042955;28;20103;-65
2022/07/03 03:18:02;;;;;;;4.28;1.85;;;;;;;;;;5046058;28;20028;-65
2022/07/03 03:20:31;;;;;;;2.78;1.85;;;;;;;;;;5066655;28;20039;-65
2022/07/03 03:23:08;;;;;;;3.88;2.13;;;;;;;;;;5046274;28;20033;-65
2022/07/03 03:25:34;;;;;;;2.67;1.95;;;;;;;;;;5046322;28;20048;-65
2022/07/03 03:27:59;;;;;;;2.67;1.60;;;;;;;;;;5058271;28;20028;-65
2022/07/03 03:30:25;;;;;;;2.65;1.58;;;;;;;;;;5064469;28;20039;-65
2022/07/03 03:51:50;;;;;;;4.28;2.15;;;;;;;;;;5057221;28;20395;-66
2022/07/03 03:54:15;;;;;;;2.47;1.77;;;;;;;;;;5063703;28;20063;-66
2022/07/03 03:56:41;;;;;;;2.53;1.70;;;;;;;;;;5063713;28;20032;-66
2022/07/03 03:59:06;;;;;;;3.45;1.90;;;;;;;;;;5056186;28;20433;-66
2022/07/03 04:01:31;;;;;;;3.92;1.92;;;;;;;;;;5061890;28;20418;-66
2022/07/03 04:03:59;;;;;;;3.30;1.95;;;;;;;;;;5062925;28;20024;-66
2022/07/03 04:06:24;;;;;;;3.00;1.73;;;;;;;;;;5063752;28;20039;-66
2022/07/03 04:08:50;;;;;;;3.55;1.90;;;;;;;;;;5062592;28;20485;-66
2022/07/03 04:11:15;;;;;;;6.00;2.03;;;;;;;;;;5060456;28;20049;-65
2022/07/03 04:13:41;;;;;;;2.88;1.90;;;;;;;;;;5062706;28;20047;-65
2022/07/03 04:16:06;;;;;;;3.22;1.85;;;;;;;;;;5060076;28;20552;-66
2022/07/03 04:18:31;;;;;;;4.55;2.10;;;;;;;;;;5060670;28;20033;-66
2022/07/03 04:20:57;;;;;;;2.30;1.90;;;;;;;;;;5061184;28;20033;-66
2022/07/03 04:23:22;;;;;;;4.63;2.00;;;;;;;;;;5063494;28;20526;-66
2022/07/03 04:25:47;;;;;;;3.28;2.05;;;;;;;;;;5061450;28;20124;-66
2022/07/03 04:28:13;;;;;;;5.22;2.40;;;;;;;;;;5062790;28;20478;-66
2022/07/03 04:30:39;;;;;;;4.55;2.20;;;;;;;;;;5062971;28;20025;-66
2022/07/03 04:33:04;;;;;;;4.90;2.00;;;;;;;;;;5062223;28;20043;-66
2022/07/03 04:35:30;;;;;;;7.70;2.40;;;;;;;;;;5063011;28;20029;-66
2022/07/03 04:37:55;;;;;;;3.30;1.98;;;;;;;;;;5063726;28;20496;-66
2022/07/03 04:40:20;;;;;;;4.80;2.10;;;;;;;;;;5060804;28;20441;-66
2022/07/03 04:42:46;;;;;;;3.92;2.10;;;;;;;;;;5052580;28;20021;-66
2022/07/03 04:45:11;;;;;;;9.02;5.43;;;;;;;;;;5050604;28;20401;-66
2022/07/03 04:47:36;;;;;;;5.15;2.65;;;;;;;;;;5053177;28;20029;-66
2022/07/03 04:50:02;;;;;;;4.45;2.35;;;;;;;;;;5062466;28;20045;-66
2022/07/03 04:52:28;;;;;;;8.32;2.10;;;;;;;;;;5049168;28;20495;-65
2022/07/03 04:54:53;;;;;;;4.45;1.90;;;;;;;;;;5039698;28;20436;-66
2022/07/03 04:57:18;;;;;;;2.28;1.85;;;;;;;;;;5036892;28;20052;-66
2022/07/03 04:59:44;;;;;;;3.90;2.20;;;;;;;;;;5047686;28;20052;-66
2022/07/03 05:02:09;;;;;;;2.45;1.85;;;;;;;;;;5040684;28;20037;-66
2022/07/03 05:04:34;;;;;;;3.58;2.00;;;;;;;;;;5046687;28;20033;-66
2022/07/03 05:07:00;;;;;;;3.75;1.90;;;;;;;;;;5045699;28;20036;-66
2022/07/03 05:09:25;;;;;;;6.00;2.10;;;;;;;;;;5042267;28;20098;-66
2022/07/03 05:11:51;;;;;;;3.88;2.25;;;;;;;;;;5040003;28;20033;-66
2022/07/03 05:14:16;;;;;;;3.20;2.00;;;;;;;;;;5046737;28;20419;-66
2022/07/03 05:16:41;;;;;;;2.85;2.03;;;;;;;;;;5041123;28;20408;-66
2022/07/03 05:19:07;;;;;;;2.97;2.15;;;;;;;;;;5043951;28;20025;-66
2022/07/03 05:21:32;;;;;;;5.00;2.10;;;;;;;;;;5042359;28;20037;-66
2022/07/03 05:23:58;;;;;;;3.03;2.10;;;;;;;;;;5048703;28;20052;-66
2022/07/03 05:26:23;;;;;;;2.72;2.03;;;;;;;;;;5046751;28;20044;-66
2022/07/03 05:28:49;;;;;;;7.32;2.40;;;;;;;;;;5041207;28;20064;-66
2022/07/03 05:31:14;;;;;;;6.32;2.55;;;;;;;;;;5038382;28;20063;-66
2022/07/03 05:33:40;;;;;;;4.78;2.30;;;;;;;;;;5046070;28;20121;-66
2022/07/03 05:36:06;;;;;;;3.97;2.08;;;;;;;;;;5045681;28;20041;-66
2022/07/03 05:41:16;;;;;;;4.85;2.47;;;;;;;;;;5041807;28;20040;-66
2022/07/03 05:43:41;;;;;;;5.22;2.80;;;;;;;;;;5034167;28;20037;-66
2022/07/03 05:46:07;;;;;;;3.45;2.33;;;;;;;;;;5039489;28;20063;-66
2022/07/03 05:48:32;;;;;;;5.00;2.65;;;;;;;;;;5044808;28;20095;-66
2022/07/03 05:50:57;;;;;;;5.15;2.65;;;;;;;;;;5037746;28;20049;-66
2022/07/03 05:53:23;;;;;;;3.92;2.60;;;;;;;;;;5040412;28;20037;-66
2022/07/03 05:55:49;;;;;;;4.32;2.60;;;;;;;;;;5043756;28;20041;-66
2022/07/03 05:58:14;;;;;;;4.82;2.70;;;;;;;;;;5034900;28;20056;-67
2022/07/03 06:00:40;;;;;;;4.25;2.42;;;;;;;;;;5034100;28;20144;-66
2022/07/03 06:03:05;;;;;;;4.05;2.70;;;;;;;;;;5046716;28;20040;-65
2022/07/03 06:05:32;;;;;;;4.60;2.60;;;;;;;;;;5045680;28;20045;-66
2022/07/03 06:07:58;;;;;;;7.45;2.90;;;;;;;;;;5048821;28;20041;-66
2022/07/03 06:10:23;;;;;;;4.57;2.60;;;;;;;;;;5045220;28;20033;-65
2022/07/03 06:12:49;;;;;;;7.50;2.75;;;;;;;;;;5041259;28;20032;-66
2022/07/03 06:15:14;;;;;;;5.53;2.83;;;;;;;;;;5035829;28;20037;-66
2022/07/03 06:17:40;;;;;;;8.18;3.38;;;;;;;;;;5038787;28;20045;-65
2022/07/03 06:20:06;;;;;;;7.82;2.47;;;;;;;;;;5024901;28;20124;-66
2022/07/03 06:22:32;;;;;;;5.55;2.40;;;;;;;;;;5034576;28;20030;-65
2022/07/03 06:24:57;;;;;;;5.53;2.70;;;;;;;;;;5039793;28;20025;-66
2022/07/03 06:27:23;;;;;;;3.95;2.60;;;;;;;;;;5040581;28;20045;-66
2022/07/03 06:29:49;;;;;;;4.53;2.60;;;;;;;;;;5038248;28;20037;-66
2022/07/03 06:32:15;;;;;;;7.55;3.97;;;;;;;;;;5035159;28;20499;-66
2022/07/03 06:34:42;;;;;;;5.60;2.80;;;;;;;;;;5045138;28;20051;-66
2022/07/03 06:37:08;;;;;;;5.75;2.70;;;;;;;;;;5039124;28;20049;-67
2022/07/03 06:39:33;;;;;;;7.35;3.05;;;;;;;;;;5043686;28;20125;-67
2022/07/03 06:41:59;;;;;;;6.95;3.10;;;;;;;;;;5039110;28;20079;-66
2022/07/03 06:44:24;;;;;;;3.72;2.80;;;;;;;;;;5039694;28;20064;-66
2022/07/03 06:46:49;;;;;;;4.60;2.90;;;;;;;;;;5041034;28;20029;-66
2022/07/03 06:49:15;;;;;;;6.72;3.22;;;;;;;;;;5046311;28;20033;-67
2022/07/03 06:51:40;;;;;;;4.00;2.92;;;;;;;;;;5039789;28;20120;-67
2022/07/03 06:54:05;;;;;;;4.70;2.58;;;;;;;;;;5051332;28;20066;-67
2022/07/03 06:56:31;;;;;;;6.97;2.88;;;;;;;;;;5040144;28;20277;-66
2022/07/03 06:58:56;;;;;;;6.07;3.05;;;;;;;;;;5039505;28;20116;-67
2022/07/03 07:01:21;;;;;;;3.80;2.60;;;;;;;;;;5041924;28;20032;-67
2022/07/03 07:03:47;;;;;;;5.38;2.70;;;;;;;;;;5044698;28;20044;-67
2022/07/03 07:06:12;;;;;;;6.15;2.72;;;;;;;;;;5024645;28;20063;-67
2022/07/03 07:08:37;;;;;;;3.08;1.88;;;;;;;;;;5027807;28;20059;-67
2022/07/03 07:11:03;;;;;;;4.88;2.30;;;;;;;;;;5042095;28;20032;-68
2022/07/03 07:13:28;;;;;;;5.55;2.50;;;;;;;;;;5044586;28;20074;-67
2022/07/03 07:15:53;;;;;;;6.72;2.28;;;;;;;;;;5044096;28;20037;-67
2022/07/03 07:18:19;;;;;;;4.38;2.38;;;;;;;;;;5041413;28;20752;-67
2022/07/03 07:20:44;;;;;;;3.85;2.20;;;;;;;;;;5042545;28;20034;-67
2022/07/03 07:23:09;;;;;;;3.00;1.95;;;;;;;;;;5037459;28;20504;-67
2022/07/03 07:25:35;;;;;;;7.10;2.10;;;;;;;;;;5038811;28;20033;-66
2022/07/03 07:28:01;;;;;;;4.47;2.30;;;;;;;;;;5036029;28;20041;-67
2022/07/03 07:30:26;;;;;;;2.13;1.60;;;;;;;;;;5038733;28;20048;-67
2022/07/03 07:32:51;;;;;;;3.35;1.80;;;;;;;;;;5045177;28;20120;-67
2022/07/03 07:35:18;;;;;;;4.38;2.00;;;;;;;;;;5042312;28;20131;-67
2022/07/03 07:37:44;;;;;;;3.17;1.90;;;;;;;;;;5037552;28;20032;-66
2022/07/03 07:40:10;;;;;;;6.70;2.00;;;;;;;;;;5037992;28;20037;-66
2022/07/03 07:42:35;;;;;;;2.80;2.10;;;;;;;;;;5038088;28;20037;-66
2022/07/03 07:45:00;;;;;;;3.25;1.55;;;;;;;;;;5039777;28;20029;-66
2022/07/03 07:47:26;;;;;;;2.33;1.50;;;;;;;;;;5043307;28;20064;-67
2022/07/03 07:49:51;;;;;;;3.58;1.50;;;;;;;;;;5040057;28;20410;-67
2022/07/03 07:52:16;;;;;;;3.30;1.50;;;;;;;;;;5039784;28;20411;-67
2022/07/03 07:54:42;;;;;;;3.47;1.80;;;;;;;;;;5036549;28;20497;-67
2022/07/03 07:57:07;;;;;;;2.78;1.60;;;;;;;;;;5041068;28;20129;-67
2022/07/03 07:59:32;;;;;;;3.35;1.50;;;;;;;;;;5036196;28;20045;-67
2022/07/03 08:07:25;;;;;;;4.43;1.50;;;;;;;;;;5038823;28;20119;-67
2022/07/03 08:09:53;;;;;;;2.67;1.40;;;;;;;;;;5035935;28;20132;-67
2022/07/03 08:12:19;;;;;;;1.70;1.45;;;;;;;;;;5040477;28;20038;-67
2022/07/03 08:14:44;;;;;;;2.60;1.50;;;;;;;;;;5044089;28;20036;-67
2022/07/03 08:17:09;;;;;;;2.15;1.25;;;;;;;;;;5045169;28;20037;-67
2022/07/03 08:19:35;;;;;;;2.83;1.40;;;;;;;;;;5034711;28;20068;-67
2022/07/03 08:22:01;;;;;;;2.00;1.40;;;;;;;;;;5028166;28;20061;-67
2022/07/03 08:24:26;;;;;;;2.88;1.50;;;;;;;;;;5039751;28;20113;-67
2022/07/03 08:26:52;;;;;;;2.03;1.73;;;;;;;;;;5043136;28;20502;-68
2022/07/03 08:29:17;;;;;;;5.10;2.00;;;;;;;;;;5049673;28;20051;-66
2022/07/03 08:31:42;;;;;;;1.60;1.48;;;;;;;;;;5042380;28;20032;-67
2022/07/03 08:34:12;;;;;;;2.85;1.40;;;;;;;;;;5049581;28;20037;-67
2022/07/03 08:36:37;;;;;;;1.52;1.23;;;;;;;;;;5047142;28;20037;-66
2022/07/03 08:39:02;;;;;;;2.80;1.77;;;;;;;;;;5045041;28;20633;-67
2022/07/03 08:41:29;;;;;;;1.70;1.60;;;;;;;;;;5043965;28;20033;-68
2022/07/03 08:43:55;;;;;;;3.60;1.60;;;;;;;;;;5041910;28;20084;-67
2022/07/03 08:46:20;;;;;;;3.97;1.80;;;;;;;;;;5044794;28;20028;-67
2022/07/03 08:48:47;;;;;;;3.67;1.48;;;;;;;;;;5050808;28;20040;-67
2022/07/03 08:51:14;;;;;;;2.70;1.40;;;;;;;;;;5048051;28;20507;-68
2022/07/03 08:53:39;;;;;;;4.60;1.60;;;;;;;;;;5034333;28;20064;-67
2022/07/03 08:56:07;;;;;;;4.13;1.67;;;;;;;;;;5043604;28;20060;-67
2022/07/03 08:58:33;;;;;;;2.22;1.33;;;;;;;;;;5045492;28;20533;-68
2022/07/03 09:00:58;;;;;;;2.40;1.40;;;;;;;;;;5038811;28;20025;-68
2022/07/03 09:03:24;;;;;;;3.05;1.38;;;;;;;;;;5044294;28;20037;-68
2022/07/03 09:05:51;;;;;;;2.40;1.58;;;;;;;;;;5039511;28;20041;-68
2022/07/03 09:08:18;;;;;;;2.28;1.40;;;;;;;;;;5038313;28;20033;-66
2022/07/03 09:10:46;;;;;;;3.17;1.30;;;;;;;;;;5029998;28;20293;-66
2022/07/03 09:13:12;;;;;;;2.75;1.00;;;;;;;;;;5032273;28;20525;-66
2022/07/03 09:15:37;;;;;;;1.63;1.35;;;;;;;;;;5047687;28;20033;-66
2022/07/03 09:18:06;;;;;;;2.47;1.40;;;;;;;;;;5050581;28;20033;-66
2022/07/03 09:20:37;;;;;;;1.80;1.20;;;;;;;;;;5043689;28;20033;-67
2022/07/03 09:23:19;;;;;;;1.30;1.08;;;;;;;;;;5043839;28;20104;-68
2022/07/03 09:25:55;;;;;;;3.08;1.38;;;;;;;;;;5049793;28;20031;-68
2022/07/03 09:28:42;;;;;;;5.07;1.40;;;;;;;;;;5048712;28;20039;-68
2022/07/03 09:31:07;;;;;;;2.17;1.20;;;;;;;;;;5048854;28;20053;-68
2022/07/03 09:33:33;;;;;;;1.77;1.10;;;;;;;;;;5048318;28;20049;-68
2022/07/03 09:35:58;;;;;;;2.78;0.98;;;;;;;;;;5045563;28;20036;-68
2022/07/03 09:38:24;;;;;;;4.30;1.00;;;;;;;;;;5049543;28;20037;-68
2022/07/03 09:40:54;;;;;;;1.27;1.13;;;;;;;;;;5036124;28;20031;-67
2022/07/03 09:43:25;;;;;;;3.60;1.40;;;;;;;;;;5038808;28;20024;-68
2022/07/03 09:46:03;;;;;;;5.80;1.05;;;;;;;;;;5042029;28;20125;-68
2022/07/03 09:48:30;;;;;;;1.70;1.17;;;;;;;;;;5038188;28;20029;-68
2022/07/03 09:51:10;;;;;;;3.17;1.27;;;;;;;;;;5043882;28;20041;-68
2022/07/03 09:53:57;;;;;;;3.10;1.27;;;;;;;;;;5041519;28;20029;-68
2022/07/03 09:56:37;;;;;;;5.25;1.45;;;;;;;;;;5035070;28;20125;-68
2022/07/03 09:59:07;;;;;;;2.20;1.00;;;;;;;;;;5038478;28;20574;-68
2022/07/03 10:01:33;;;;;;;2.00;0.90;;;;;;;;;;5038674;28;20078;-68
2022/07/03 10:04:13;;;;;;;1.27;1.10;;;;;;;;;;5034514;28;20723;-68
2022/07/03 10:06:48;;;;;;;2.38;1.10;;;;;;;;;;5042135;28;20029;-69
2022/07/03 10:09:18;;;;;;;5.10;2.35;;;;;;;;;;5043240;28;20507;-66
2022/07/03 10:11:45;;;;;;;2.90;1.98;;;;;;;;;;5036869;28;20041;-66
2022/07/03 10:14:16;;;;;;;2.35;1.30;;;;;;;;;;5042672;28;20033;-66
2022/07/03 10:16:42;;;;;;;1.73;0.90;;;;;;;;;;5037670;28;20025;-66
2022/07/03 10:19:15;;;;;;;3.53;1.10;;;;;;;;;;5039451;28;20079;-65
2022/07/03 10:21:42;;;;;;;1.58;1.20;;;;;;;;;;5042758;28;20064;-66
2022/07/03 10:24:08;;;;;;;1.90;1.27;;;;;;;;;;5038353;28;20447;-68
2022/07/03 10:26:34;;;;;;;3.35;1.50;;;;;;;;;;5038789;28;20043;-68
2022/07/03 10:29:01;;;;;;;3.90;1.02;;;;;;;;;;5040274;28;20021;-68
2022/07/03 10:31:27;;;;;;;1.40;1.10;;;;;;;;;;5027985;28;20504;-68
2022/07/03 10:33:53;;;;;;;1.40;1.10;;;;;;;;;;5028651;28;20079;-68
2022/07/03 10:36:19;;;;;;;3.63;1.35;;;;;;;;;;5038598;28;20141;-68
2022/07/03 10:38:48;;;;;;;3.30;1.10;;;;;;;;;;5036213;28;20180;-68
2022/07/03 10:44:53;;;;;;;2.55;1.10;;;;;;;;;;4991309;28;20538;-68
2022/07/03 10:47:50;;;;;;;1.80;1.10;;;;;;;;;;5027755;28;20037;-68
2022/07/03 10:50:20;;;;;;;3.40;1.33;;;;;;;;;;5024545;28;20120;-68
2022/07/03 10:52:46;;;;;;;2.85;1.08;;;;;;;;;;5027448;28;20033;-68
2022/07/03 10:55:13;;;;;;;2.33;1.20;;;;;;;;;;5027706;28;20060;-68
2022/07/03 10:57:40;;;;;;;2.80;1.10;;;;;;;;;;5027271;28;20044;-68
2022/07/03 11:00:08;;;;;;;1.63;1.20;;;;;;;;;;5027284;28;20091;-68
2022/07/03 11:02:39;;;;;;;2.88;1.20;;;;;;;;;;5026386;28;20566;-68
2022/07/03 11:05:08;;;;;;;2.42;1.23;;;;;;;;;;5027158;28;20021;-68
2022/07/03 11:07:38;;;;;;;4.40;1.25;;;;;;;;;;5028336;28;20063;-68
2022/07/03 11:10:12;;;;;;;2.10;1.30;;;;;;;;;;5028006;28;20068;-69
2022/07/03 11:12:57;;;;;;;2.47;1.05;;;;;;;;;;5028118;28;20034;-68
2022/07/03 11:15:29;;;;;;;1.85;1.10;;;;;;;;;;5046983;28;20083;-68
2022/07/03 11:18:19;;;;;;;1.50;1.00;;;;;;;;;;5047618;28;20123;-69
2022/07/03 11:20:44;;;;;;;3.15;0.90;;;;;;;;;;5036276;28;20044;-69
2022/07/03 11:23:10;;;;;;;2.05;1.17;;;;;;;;;;5036926;28;20033;-68
2022/07/03 11:25:42;;;;;;;3.70;1.02;;;;;;;;;;5033144;28;20021;-68
2022/07/03 11:28:08;;;;;;;2.40;1.17;;;;;;;;;;5040411;28;20124;-69
2022/07/03 11:30:33;;;;;;;1.65;1.00;;;;;;;;;;5027031;28;20136;-69
2022/07/03 11:33:00;;;;;;;3.25;1.05;;;;;;;;;;5036678;28;20112;-68
2022/07/03 11:35:53;;;;;;;4.35;1.10;;;;;;;;;;5036808;28;20044;-68
2022/07/03 11:38:29;;;;;;;2.13;1.35;;;;;;;;;;5040456;28;20661;-68
2022/07/03 11:40:56;;;;;;;2.90;1.42;;;;;;;;;;5038329;28;20040;-68
2022/07/03 11:43:22;;;;;;;1.65;1.00;;;;;;;;;;5039839;28;20029;-68
2022/07/03 11:45:49;;;;;;;2.40;1.00;;;;;;;;;;5036319;28;20041;-69
2022/07/03 11:48:19;;;;;;;1.92;1.00;;;;;;;;;;5034254;28;20462;-69
2022/07/03 11:50:46;;;;;;;3.58;1.10;;;;;;;;;;5041190;28;20072;-69
2022/07/03 11:53:19;;;;;;;2.00;1.10;;;;;;;;;;5034019;28;20041;-68
2022/07/03 11:55:53;;;;;;;1.98;1.00;;;;;;;;;;5040261;28;20024;-68
2022/07/03 11:58:18;;;;;;;2.08;1.10;;;;;;;;;;5047412;28;20041;-69
2022/07/03 12:00:44;;;;;;;1.33;1.23;;;;;;;;;;5043682;28;20095;-69
2022/07/03 12:03:30;;;;;;;2.25;1.20;;;;;;;;;;5040146;28;20030;-69
2022/07/03 12:05:57;;;;;;;2.40;1.10;;;;;;;;;;5040058;28;20068;-69
2022/07/03 12:08:31;;;;;;;2.38;1.15;;;;;;;;;;5043445;28;20045;-68
2022/07/03 12:11:03;;;;;;;2.05;1.10;;;;;;;;;;5049608;28;20025;-68
2022/07/03 12:13:30;;;;;;;2.13;1.17;;;;;;;;;;5053414;28;20056;-69
2022/07/03 12:16:04;;;;;;;4.13;1.20;;;;;;;;;;5052899;28;20077;-68
2022/07/03 12:18:42;;;;;;;3.97;1.20;;;;;;;;;;5044232;28;20025;-69
2022/07/03 12:21:08;;;;;;;3.78;1.23;;;;;;;;;;5050098;28;20040;-69
2022/07/03 12:23:59;;;;;;;2.13;1.10;;;;;;;;;;5049462;28;20036;-69
2022/07/03 12:26:33;;;;;;;2.05;1.02;;;;;;;;;;5041069;28;20131;-69
2022/07/03 12:29:00;;;;;;;2.47;1.20;;;;;;;;;;5042341;28;20499;-69
2022/07/03 12:31:26;;;;;;;2.35;1.38;;;;;;;;;;5043066;28;20503;-68
2022/07/03 12:33:52;;;;;;;2.38;1.30;;;;;;;;;;5041875;28;20079;-68
2022/07/03 12:36:18;;;;;;;5.25;1.30;;;;;;;;;;5048699;28;20048;-69
2022/07/03 12:38:48;;;;;;;3.83;1.40;;;;;;;;;;5049663;28;20037;-68
2022/07/03 12:41:15;;;;;;;1.35;1.00;;;;;;;;;;5049622;28;20025;-67
2022/07/03 12:43:42;;;;;;;3.60;1.13;;;;;;;;;;5044207;28;20072;-66
2022/07/03 12:46:32;;;;;;;2.33;1.27;;;;;;;;;;5041722;28;20045;-67
2022/07/03 12:49:00;;;;;;;3.28;1.42;;;;;;;;;;5037730;28;20171;-67
2022/07/03 12:51:41;;;;;;;2.13;1.30;;;;;;;;;;5038779;28;20507;-67
2022/07/03 12:54:09;;;;;;;4.45;1.48;;;;;;;;;;5043703;28;20045;-65
2022/07/03 12:56:34;;;;;;;3.15;1.20;;;;;;;;;;5042274;28;20048;-65
2022/07/03 12:59:18;;;;;;;3.28;1.15;;;;;;;;;;5039013;28;20044;-65
2022/07/03 13:01:45;;;;;;;5.70;1.35;;;;;;;;;;5044082;28;20111;-65
2022/07/03 13:04:14;;;;;;;4.10;1.25;;;;;;;;;;5041016;28;20037;-65
2022/07/03 13:06:42;;;;;;;2.53;1.20;;;;;;;;;;5037525;28;20466;-65
2022/07/03 13:09:08;;;;;;;2.25;1.42;;;;;;;;;;5030027;28;20035;-65
2022/07/03 13:11:39;;;;;;;2.20;1.13;;;;;;;;;;5032438;28;20075;-65
2022/07/03 13:14:08;;;;;;;3.80;1.25;;;;;;;;;;5047760;28;20052;-65
2022/07/03 13:16:48;;;;;;;2.15;1.30;;;;;;;;;;5055440;28;20588;-65
2022/07/03 13:19:19;;;;;;;4.60;2.03;;;;;;;;;;5042613;28;20076;-65
2022/07/03 13:21:44;;;;;;;1.67;1.08;;;;;;;;;;5037993;28;20518;-65
2022/07/03 13:24:11;;;;;;;0.80;0.80;;;;;;;;;;5035504;28;20119;-65
2022/07/03 13:26:37;;;;;;;3.75;1.10;;;;;;;;;;5047942;28;20093;-65
2022/07/03 13:29:03;;;;;;;1.45;0.90;;;;;;;;;;5037201;28;20052;-65
2022/07/03 13:31:29;;;;;;;2.28;0.93;;;;;;;;;;5029992;28;20030;-65
2022/07/03 13:33:55;;;;;;;2.42;0.77;;;;;;;;;;5036825;28;20087;-65
2022/07/03 13:36:21;;;;;;;2.10;1.15;;;;;;;;;;5026434;28;20045;-65
2022/07/03 13:38:46;;;;;;;2.28;1.00;;;;;;;;;;5049571;28;20040;-65
2022/07/03 13:41:12;;;;;;;2.25;1.02;;;;;;;;;;5049184;28;20064;-65
2022/07/03 13:43:37;;;;;;;1.35;0.70;;;;;;;;;;5048903;28;20108;-65
2022/07/03 13:46:02;;;;;;;1.10;0.90;;;;;;;;;;5046685;28;20037;-65
2022/07/03 13:48:28;;;;;;;1.30;0.85;;;;;;;;;;5031197;28;20111;-64
2022/07/03 13:50:54;;;;;;;1.30;0.70;;;;;;;;;;5031280;28;20045;-65
2022/07/03 13:53:19;;;;;;;3.53;1.00;;;;;;;;;;5010348;28;20492;-65
2022/07/03 13:55:44;;;;;;;2.03;0.80;;;;;;;;;;5017106;28;21856;-67
2022/07/03 13:58:10;;;;;;;1.73;0.80;;;;;;;;;;5017017;28;20040;-67
2022/07/03 14:00:35;;;;;;;1.15;0.70;;;;;;;;;;5017525;28;20094;-67
2022/07/03 14:03:02;;;;;;;3.25;0.90;;;;;;;;;;5021872;28;20721;-65
2022/07/03 14:05:27;;;;;;;1.40;0.77;;;;;;;;;;5019979;28;20463;-64
2022/07/03 14:07:54;;;;;;;0.95;0.80;;;;;;;;;;5023508;28;20495;-65
2022/07/03 14:10:20;;;;;;;1.10;0.90;;;;;;;;;;5034751;28;20652;-66
2022/07/03 14:12:46;;;;;;;1.95;0.90;;;;;;;;;;5029901;28;20075;-65
2022/07/03 14:15:11;;;;;;;1.38;0.80;;;;;;;;;;5023884;28;20708;-66
2022/07/03 14:17:37;;;;;;;2.65;0.98;;;;;;;;;;5020880;28;20045;-64
2022/07/03 14:20:02;;;;;;;1.45;0.98;;;;;;;;;;5023271;28;20033;-65
2022/07/03 14:22:27;;;;;;;2.58;1.20;;;;;;;;;;5036119;28;20017;-65
2022/07/03 14:24:53;;;;;;;3.13;1.08;;;;;;;;;;5027506;28;20135;-65
2022/07/03 14:32:48;;;;;;;3.08;0.80;;;;;;;;;;5024963;28;20542;-65
2022/07/03 14:35:13;;;;;;;2.35;1.00;;;;;;;;;;5039242;28;20048;-65
2022/07/03 14:37:39;;;;;;;0.80;0.80;;;;;;;;;;5032422;28;20041;-65
2022/07/03 14:40:05;;;;;;;0.95;0.85;;;;;;;;;;5034452;28;20116;-64
2022/07/03 14:42:30;;;;;;;2.90;1.00;;;;;;;;;;5024317;28;20406;-67
2022/07/03 14:44:56;;;;;;;2.28;1.05;;;;;;;;;;5022536;28;20036;-66
2022/07/03 14:47:21;;;;;;;3.03;0.90;;;;;;;;;;5024552;28;20033;-66
2022/07/03 14:49:47;;;;;;;1.73;1.00;;;;;;;;;;5025365;28;20060;-65
2022/07/03 14:52:13;;;;;;;1.50;1.00;;;;;;;;;;5020877;28;20665;-67
2022/07/03 14:54:41;;;;;;;1.40;0.88;;;;;;;;;;5022689;28;20036;-66
2022/07/03 14:57:34;;;;;;;1.40;0.82;;;;;;;;;;5020258;28;20045;-65
2022/07/03 15:00:06;;;;;;;3.15;0.93;;;;;;;;;;5022353;28;20044;-67
2022/07/03 15:02:44;;;;;;;1.77;0.90;;;;;;;;;;5019893;28;20045;-67
2022/07/03 15:05:12;;;;;;;2.97;0.90;;;;;;;;;;5025717;28;20057;-67
2022/07/03 15:07:40;;;;;;;2.67;0.98;;;;;;;;;;5019581;28;20024;-67
2022/07/03 15:10:15;;;;;;;2.03;1.00;;;;;;;;;;5033867;28;20045;-66
2022/07/03 15:12:42;;;;;;;2.30;0.98;;;;;;;;;;5034089;28;20116;-66
2022/07/03 15:15:09;;;;;;;2.20;1.27;;;;;;;;;;5018624;28;20095;-65
2022/07/03 15:17:35;;;;;;;1.52;1.00;;;;;;;;;;5032519;28;20095;-66
2022/07/03 15:20:02;;;;;;;1.20;0.82;;;;;;;;;;5027615;28;20589;-67
2022/07/03 15:22:30;;;;;;;1.85;0.90;;;;;;;;;;5028294;28;20106;-66
2022/07/03 15:24:57;;;;;;;0.80;0.80;;;;;;;;;;5024570;28;20128;-67
2022/07/03 15:27:24;;;;;;;2.38;0.90;;;;;;;;;;5019409;28;20041;-67
2022/07/03 15:29:50;;;;;;;3.63;0.93;;;;;;;;;;5018913;28;20041;-67